Latest Weather Observations for Strathalbyn

IDS60801

Issued at 11:05 pm CST Sunday 20 April 2014 (issued every 30 minutes, with the page automatically refreshed every 10 minutes)

About weather observations | Map of weather stations | Latest weather observations for SA | Other Formats
Station Details ID: 024580 Name: STRATHALBYN RACECOURSE Lat: -35.28 Lon: 138.89 Height: 58.0 m
Data from the previous 72 hours. | See also: Recent months at Strathalbyn
Date/Time
CST
Temp
°C
App
Temp
°C
Dew
Point
Rel
Hum
%
Delta-T
°C
Wind Press
QNH
hPa
Press
MSL
hPa
Rain
since 9 am
mm
Dir
 
Spd
km/h
Gust
km/h
Spd
kts
Gust
kts
20/11:00pm 13.0 11.6 9.6 80 1.7 NNW 7 9 4 5 1017.5 - 0.0
20/10:30pm 13.1 10.9 9.4 78 1.9 NW 11 13 6 7 1017.9 - 0.0
20/10:00pm 13.5 10.8 9.0 74 2.3 N 13 17 7 9 1018.1 - 0.0
20/09:30pm 13.9 12.1 9.5 75 2.3 WNW 9 13 5 7 1018.3 - 0.0
20/09:00pm 13.8 11.5 9.0 73 2.4 NW 11 11 6 6 1018.2 1018.2 0.0
20/08:30pm 13.6 11.7 8.9 73 2.4 N 9 9 5 5 1018.2 - 0.0
20/08:00pm 13.6 12.2 8.7 72 2.5 S 6 7 3 4 1018.1 - 0.0
20/07:30pm 14.1 12.5 7.9 66 3.1 NW 6 9 3 5 1018.0 - 0.0
20/07:00pm 15.3 14.5 8.3 63 3.5 NNW 2 7 1 4 1018.0 - 0.0
20/06:30pm 16.6 14.2 8.6 59 4.1 W 11 13 6 7 1017.8 - 0.0
20/06:00pm 17.6 15.9 8.5 55 4.7 SSW 7 9 4 5 1017.4 1017.4 0.0
20/05:30pm 19.1 17.3 8.1 49 5.7 W 7 9 4 5 1017.0 - 0.0
20/05:00pm 20.0 16.4 8.4 47 6.1 W 17 20 9 11 1017.0 - 0.0
20/04:30pm 20.8 17.6 8.4 45 6.5 W 15 20 8 11 1017.0 - 0.0
20/04:00pm 20.6 17.0 8.3 45 6.4 W 17 24 9 13 1016.8 - 0.0
20/03:30pm 21.2 17.9 8.1 43 6.8 WSW 15 24 8 13 1016.7 - 0.0
20/03:00pm 21.1 17.5 8.4 44 6.7 W 17 26 9 14 1016.7 1016.7 0.0
20/02:30pm 21.5 17.9 8.4 43 6.9 WSW 17 24 9 13 1016.6 - 0.0
20/02:00pm 21.4 17.6 7.6 41 7.2 W 17 24 9 13 1016.5 - 0.0
20/01:30pm 22.1 17.9 7.5 39 7.6 WSW 19 24 10 13 1016.5 - 0.0
20/01:00pm 21.9 19.1 7.0 38 7.7 WNW 11 30 6 16 1016.8 - 0.0
20/12:30pm 21.6 18.9 7.4 40 7.3 W 11 22 6 12 1017.3 - 0.0
20/12:00pm 21.2 18.3 8.1 43 6.8 WNW 13 20 7 11 1017.7 1017.7 0.0
20/11:30am 20.4 18.2 7.7 44 6.6 NW 9 13 5 7 1017.9 - 0.0
20/11:00am 19.9 17.6 8.9 49 5.8 WNW 11 20 6 11 1018.2 - 0.0
20/10:30am 19.4 16.6 8.4 49 5.7 NW 13 19 7 10 1018.4 - 0.0
20/10:00am 18.7 15.8 8.1 50 5.5 NW 13 19 7 10 1018.6 - 0.0
20/09:30am 18.1 14.2 7.2 49 5.5 NW 17 20 9 11 1018.8 - 0.0
20/09:00am 17.6 14.6 5.9 46 5.7 NNW 11 15 6 8 1019.0 1019.0 0.0
20/08:30am 16.2 13.2 6.1 51 4.9 N 11 13 6 7 1018.6 - 0.0
20/08:00am 14.5 11.9 6.3 58 4.0 N 9 11 5 6 1018.5 - 0.0
20/07:30am 12.2 9.1 5.6 64 3.1 NNW 11 13 6 7 1018.1 - 0.0
20/07:00am 10.8 7.6 5.1 68 2.6 N 11 13 6 7 1017.8 - 0.0
20/06:30am 10.1 6.4 4.7 69 2.4 N 13 15 7 8 1017.5 - 0.0
20/06:00am 11.2 7.6 4.9 65 2.9 NNW 13 17 7 9 1017.3 1017.3 0.0
20/05:30am 11.3 8.1 5.0 65 2.9 NNW 11 13 6 7 1017.2 - 0.0
20/05:00am 11.7 7.8 5.3 65 3.0 NNW 15 17 8 9 1017.0 - 0.0
20/04:30am 11.8 8.4 5.9 67 2.8 NNW 13 15 7 8 1016.9 - 0.0
20/04:00am 12.6 10.5 6.6 67 2.9 N 7 11 4 6 1017.0 - 0.0
20/03:30am 12.7 10.9 7.2 69 2.7 NNW 6 7 3 4 1017.1 - 0.0
20/03:00am 12.7 10.9 7.2 69 2.7 NNW 6 7 3 4 1017.3 1017.3 0.0
20/02:30am 12.6 9.4 6.9 68 2.7 N 13 13 7 7 1017.1 - 0.0
20/02:00am 13.0 10.2 6.8 66 3.0 NNW 11 15 6 8 1017.4 - 0.0
20/01:30am 12.0 9.9 6.7 70 2.5 NNW 7 9 4 5 1017.6 - 0.0
20/01:00am 12.1 9.3 6.8 70 2.5 NNW 11 13 6 7 1017.6 - 0.0
20/12:30am 11.2 8.3 6.5 73 2.2 NNW 11 13 6 7 1017.6 - 0.0
20/12:00am 11.4 8.9 6.7 73 2.2 NNW 9 13 5 7 1017.8 1017.8 0.0
 
Date/Time
CST
Temp
°C
App
Temp
°C
Dew
Point
Rel
Hum
%
Delta-T
°C
Wind Press
QNH
hPa
Press
MSL
hPa
Rain
since 9 am
mm
Dir
 
Spd
km/h
Gust
km/h
Spd
kts
Gust
kts
19/11:30pm 10.1 6.8 6.6 79 1.6 NW 13 15 7 8 1017.9 - 0.0
19/11:00pm 9.7 6.0 6.4 80 1.5 NNW 15 17 8 9 1018.1 - 0.0
19/10:30pm 9.7 6.4 6.6 81 1.5 NNW 13 15 7 8 1018.4 - 0.0
19/10:00pm 10.0 6.8 6.7 80 1.6 NNW 13 15 7 8 1018.6 - 0.0
19/09:30pm 10.3 7.9 7.0 80 1.6 N 9 15 5 8 1018.8 - 0.0
19/09:00pm 10.8 7.6 6.9 77 1.8 NW 13 15 7 8 1018.7 1018.7 0.0
19/08:30pm 11.5 8.7 7.0 74 2.2 NNW 11 13 6 7 1018.6 - 0.0
19/08:00pm 11.7 9.5 6.4 70 2.5 SSW 7 7 4 4 1018.6 - 0.0
19/07:30pm 11.8 9.8 6.3 69 2.6 SSW 6 7 3 4 1018.8 - 0.0
19/07:00pm 13.6 11.7 6.7 63 3.3 SSW 6 6 3 3 1018.8 - 0.0
19/06:30pm 14.4 12.0 7.0 61 3.6 SSW 9 11 5 6 1018.8 - 0.0
19/06:00pm 14.9 11.7 7.0 59 3.9 SSW 13 17 7 9 1018.6 1018.6 0.0
19/05:30pm 15.4 12.3 7.2 58 4.1 SSW 13 17 7 9 1018.5 - 0.0
19/05:00pm 16.0 11.8 5.6 50 5.0 S 17 20 9 11 1018.5 - 0.0
19/04:30pm 16.5 12.2 5.2 47 5.4 SSW 17 22 9 12 1018.6 - 0.0
19/04:00pm 17.0 12.0 4.7 44 5.8 S 20 28 11 15 1018.6 - 0.0
19/03:30pm 17.6 14.6 3.9 40 6.4 SW 9 13 5 7 1018.8 - 0.0
19/03:00pm 17.8 15.3 3.7 39 6.6 E 6 9 3 5 1018.8 1018.8 0.0
19/02:30pm 17.8 15.1 3.7 39 6.6 E 7 11 4 6 1019.0 - 0.0
19/02:00pm 17.9 15.4 3.8 39 6.6 ENE 6 7 3 4 1019.1 - 0.0
19/01:30pm 17.6 14.9 3.5 39 6.6 E 7 13 4 7 1019.5 - 0.0
19/01:00pm 17.6 14.6 3.9 40 6.4 E 9 17 5 9 1020.0 - 0.0
19/12:30pm 17.2 14.0 3.1 39 6.5 E 9 20 5 11 1020.6 - 0.0
19/12:00pm 18.0 13.9 4.2 40 6.5 E 15 20 8 11 1021.2 1021.1 0.0
19/11:30am 16.8 14.3 3.8 42 6.1 SE 6 11 3 6 1021.7 - 0.0
19/11:00am 16.9 14.0 4.6 44 5.8 ENE 9 15 5 8 1022.1 - 0.0
19/10:30am 16.1 13.6 4.5 46 5.5 N 7 11 4 6 1022.5 - 0.0
19/10:00am 15.9 13.6 4.6 47 5.3 N 6 9 3 5 1022.7 - 0.0
19/09:30am 15.7 13.3 5.3 50 5.0 N 7 11 4 6 1023.0 - 0.0
19/09:00am 15.1 12.8 7.6 61 3.7 N 9 13 5 7 1023.1 1023.0 0.0
19/08:30am 14.4 12.3 8.4 67 3.0 NNW 9 13 5 7 1022.9 - 0.0
19/08:00am 13.3 11.3 8.6 73 2.4 NNW 9 13 5 7 1022.7 - 0.0
19/07:30am 12.4 10.0 8.5 77 1.9 N 11 13 6 7 1022.4 - 0.0
19/07:00am 12.1 9.6 8.4 78 1.8 N 11 15 6 8 1022.3 - 0.0
19/06:30am 11.5 9.0 8.4 81 1.5 N 11 13 6 7 1022.3 - 0.0
19/06:00am 11.1 8.6 8.1 82 1.5 NNW 11 15 6 8 1022.1 1022.0 0.0
19/05:30am 11.3 9.6 8.3 82 1.5 N 7 11 4 6 1022.0 - 0.0
19/05:00am 11.5 9.8 8.2 80 1.6 N 7 7 4 4 1022.1 - 0.0
19/04:30am 11.4 9.6 8.1 80 1.6 N 7 7 4 4 1022.1 - 0.0
19/04:00am 11.4 10.9 7.7 78 1.8 CALM 0 6 0 3 1022.1 - 0.0
19/03:30am 11.3 9.7 7.8 79 1.7 NW 6 11 3 6 1022.0 - 0.0
19/03:00am 11.2 10.2 7.5 78 1.8 NW 2 7 1 4 1022.2 1022.1 0.0
19/02:30am 10.9 8.2 7.4 79 1.7 NW 11 13 6 7 1022.3 - 0.0
19/02:00am 9.9 7.1 6.8 81 1.5 NNW 11 15 6 8 1022.5 - 0.0
19/01:30am 10.2 7.7 6.7 79 1.6 NNW 9 11 5 6 1022.6 - 0.0
19/01:00am 10.4 8.5 6.9 79 1.7 WNW 6 9 3 5 1022.8 - 0.0
19/12:30am 10.0 7.5 6.5 79 1.6 WNW 9 11 5 6 1022.9 - 0.0
19/12:00am 10.6 8.2 6.9 78 1.7 NNW 9 11 5 6 1022.9 1022.8 0.0
 
Date/Time
CST
Temp
°C
App
Temp
°C
Dew
Point
Rel
Hum
%
Delta-T
°C
Wind Press
QNH
hPa
Press
MSL
hPa
Rain
since 9 am
mm
Dir
 
Spd
km/h
Gust
km/h
Spd
kts
Gust
kts
18/11:30pm 11.5 10.1 7.2 75 2.1 NNW 4 7 2 4 1023.0 - 0.0
18/11:00pm 11.7 10.0 7.6 76 2.0 NNW 6 6 3 3 1023.0 - 0.0
18/10:30pm 11.2 9.2 7.1 76 2.0 NNW 7 9 4 5 1023.2 - 0.0
18/10:00pm 10.8 8.4 6.9 77 1.9 NNW 9 9 5 5 1023.5 - 0.0
18/09:30pm 10.7 7.9 6.8 77 1.8 NW 11 13 6 7 1023.5 - 0.0
18/09:00pm 11.1 9.6 6.8 75 2.0 WSW 4 7 2 4 1023.5 1023.4 0.0
18/08:30pm 11.8 9.8 7.1 73 2.3 WSW 7 11 4 6 1023.5 - 0.0
18/08:00pm 11.5 9.0 6.4 71 2.4 SW 9 11 5 6 1023.2 - 0.0
18/07:30pm 11.6 9.4 6.1 69 2.6 WSW 7 9 4 5 1023.1 - 0.0
18/07:00pm 12.8 10.6 6.2 64 3.1 SW 7 9 4 5 1023.0 - 0.0
18/06:30pm 12.7 11.8 6.1 64 3.1 CALM 0 6 0 3 1022.9 - 0.0
18/06:00pm 13.9 11.2 5.5 57 3.9 S 9 13 5 7 1022.7 1022.6 0.0
18/05:30pm 15.4 10.8 5.6 52 4.7 S 19 24 10 13 1022.6 - 0.0
18/05:00pm 16.2 10.5 4.9 47 5.4 S 24 32 13 17 1022.5 - 0.0
18/04:30pm 16.7 10.8 4.1 43 5.9 SSW 24 32 13 17 1022.3 - 0.0
18/04:00pm 16.9 11.1 4.6 44 5.8 S 24 33 13 18 1022.2 - 0.0
18/03:30pm 17.2 11.5 4.9 44 5.9 S 24 35 13 19 1022.0 - 0.0
18/03:00pm 17.9 11.2 5.5 44 6.0 SSW 30 39 16 21 1021.8 1021.7 0.0
18/02:30pm 17.4 10.1 4.7 43 6.1 SSW 32 44 17 24 1021.8 - 0.0
18/02:00pm 18.2 11.9 5.8 44 6.1 SSW 28 41 15 22 1021.6 - 0.0
18/01:30pm 18.2 12.0 7.9 51 5.3 SSW 30 41 16 22 1021.4 - 0.0
18/01:00pm 18.1 11.9 4.3 40 6.6 SSW 26 37 14 20 1021.6 - 0.0
18/12:30pm 18.8 12.7 6.6 45 6.1 SSW 28 41 15 22 1021.8 - 0.0
18/12:00pm 18.3 12.1 8.0 51 5.3 S 30 46 16 25 1022.0 1021.9 0.0
18/11:30am 17.9 11.4 8.2 53 5.0 S 32 43 17 23 1021.9 - 0.0
18/11:00am 17.3 11.4 9.0 58 4.3 S 30 39 16 21 1022.0 - 0.0
18/10:30am 17.8 11.7 9.9 60 4.2 S 32 41 17 22 1021.8 - 0.0
18/10:00am 16.4 11.1 11.1 71 2.9 S 30 37 16 20 1021.7 - 0.0
18/09:30am 17.5 12.4 11.8 69 3.1 S 30 35 16 19 1021.4 - 0.0
18/09:00am 15.8 12.4 12.5 81 1.8 SW 22 39 12 21 1021.3 1021.2 0.6
18/08:30am 16.2 14.3 12.9 81 1.8 SW 15 20 8 11 1021.0 - 0.6
18/08:00am 15.5 13.9 12.8 84 1.5 SW 13 20 7 11 1020.4 - 0.6
18/07:30am 15.2 12.8 12.5 84 1.5 SW 17 24 9 13 1020.0 - 0.6
18/07:00am 14.7 10.3 11.7 82 1.6 SW 26 35 14 19 1019.6 - 0.6
18/06:57am 15.2 10.5 12.0 81 1.7 SW 28 35 15 19 1019.6 - 0.4
18/06:30am 17.1 16.2 12.6 75 2.5 W 9 15 5 8 1018.8 - 0.0
18/06:00am 17.2 15.6 12.7 75 2.5 WSW 13 19 7 10 1018.7 1018.7 0.0
18/05:30am 17.0 15.4 12.7 76 2.4 W 13 17 7 9 1018.6 - 0.0
18/05:00am 15.8 14.5 12.4 80 1.9 WNW 11 20 6 11 1018.3 - 0.0
18/04:30am 15.7 13.8 11.9 78 2.1 WNW 13 19 7 10 1018.3 - 0.0
18/04:00am 15.9 13.8 11.3 74 2.5 W 13 17 7 9 1018.0 - 0.0
18/03:30am 16.4 13.6 11.3 72 2.8 W 17 26 9 14 1018.3 - 0.0
18/03:00am 17.2 14.3 12.3 73 2.7 W 19 26 10 14 1018.3 1018.3 0.0
18/02:30am 17.3 14.6 12.8 75 2.5 W 19 26 10 14 1018.2 - 0.0
18/02:00am 17.1 14.6 13.4 79 2.1 W 19 26 10 14 1018.2 - 0.0
18/01:30am 13.2 13.5 10.9 86 1.2 CALM 0 0 0 0 1018.4 - 0.0
18/01:00am 12.8 11.4 8.7 76 2.1 WNW 6 9 3 5 1018.3 - 0.0
18/12:30am 15.6 14.2 12.2 80 1.9 W 11 13 6 7 1018.4 - 0.0
18/12:00am 12.5 10.8 9.7 83 1.4 NW 9 11 5 6 1018.4 1018.4 0.0
 
Date/Time
CST
Temp
°C
App
Temp
°C
Dew
Point
Rel
Hum
%
Delta-T
°C
Wind Press
QNH
hPa
Press
MSL
hPa
Rain
since 9 am
mm
Dir
 
Spd
km/h
Gust
km/h
Spd
kts
Gust
kts
17/11:30pm 12.8 10.8 10.0 83 1.4 NNW 11 13 6 7 1018.7 - 0.0

Other Formats:

Comma delimited format used in spreadsheet applications
http://www.bom.gov.au/fwo/IDS60801/IDS60801.94814.axf

JavaScript Object Notation format (JSON) in row-major order
http://www.bom.gov.au/fwo/IDS60801/IDS60801.94814.json